Sandgate, Vermont
Current Conditions -  °F | °C
As of 1:54 AM on Saturday 29 Nov 2014 (Local Time) from KDDH Reporting Station
Clear Clear  
Wind Chill: 19°   Ceiling: Unl
Heat Index: 19°   Visibility: 10mi
Dew Point: 14°   Wind: 3mph
Humidity: 81%   Direction: 210°SSW
Pressure: 30.21"   Gusts: NA
Location:  43.1041°N, 73.154°W
Report Text: KDDH 290654Z AUTO 21003KT 10SM CLR M07/M10 A3021 RMK AO2 SLP242 T10721100
Loading
Personal Weather Stations






























Interactive Weather Map New forecast layout! Learn more

10-Day Weather Forecast

Advertisements
Track Severe Weather on mobile